East Corinth, ME

4:06 PM EDT on August 24, 2016 (GMT -0400)
Stonyvale Farms | | Change Station

Elev 269 ft 44.95 °N, 69.12 °W | Updated 10 minutes ago

Mostly Cloudy
Mostly Cloudy
84.3 °F
Feels Like 86 °F
N
4.0
Wind Variable Wind from WSW
Gusts 8.0 mph

Today
High -- | Low -- °F
--% Chance of Precip.
Yesterday
High -- | Low -- °F
Precip. -- in
Pressure 30.10 in
Visibility 10.0 miles
Clouds Few 6000 ft
Mostly Cloudy 25000 ft
Heat Index 86 °F
Dew Point 64 °F
Humidity 51%
Rainfall 0.00 in
Snow Depth Not available.
5:49 AM 7:26 PM
Waning Gibbous, 54% visible
METAR KBGR 241953Z 29006KT 10SM FEW060 BKN250 29/16 A3011 RMK AO2 SLP192 T02890161
Pressure 30.10 in
Visibility 10.0 miles
Clouds Few 6000 ft
Mostly Cloudy 25000 ft
Heat Index 86 °F
Dew Point 64 °F
Humidity 51%
Rainfall 0.00 in
Snow Depth Not available.
5:49 AM 7:26 PM
Waning Gibbous, 54% visible
METAR KBGR 241953Z 29006KT 10SM FEW060 BKN250 29/16 A3011 RMK AO2 SLP192 T02890161

10-Day Weather Forecast

Almanac

Astronomy

Aug. 24, 2016 Rise Set
Actual Time
Civil Twilight
Nautical Twilight
Astronomical Twilight
Moon
Length of Visible Light
Length of Day
Tomorrow will be .
, % of the Moon is Illuminated

Today's Extremes

State Highs State Lows

Community

WunderPhotos

Upload Photos

1,934,696 photos uploaded!

WunderBlog® & News

Nearby

Air Quality

  Air Quality AQ Index Pollutant
Not available.

Snow Depth

Station Depth Elevation

Earthquake Activity

City Distance Mag. Time & Date
Minimum magnitude displayed is 2.5.

Coastal Water Temperatures

Place Temperature

Stations

Nearby Weather Stations

Station Location Temp. Windchill Dew Point Humidity Wind Precip. Elev Updated Type
                   

Watches & Warnings

There are currently no watches in effect.